sensor_id;sensor_type;location;lat;lon;timestamp;pressure;altitude;pressure_sealevel;temperature;humidity
3444;BME280;1736;52.068;6.968;2023-07-31T00:02:19;100674.09;;;14.75;100.00
3444;BME280;1736;52.068;6.968;2023-07-31T00:04:45;100678.63;;;14.75;100.00
3444;BME280;1736;52.068;6.968;2023-07-31T00:07:12;100669.25;;;14.71;100.00
3444;BME280;1736;52.068;6.968;2023-07-31T00:09:40;100664.19;;;14.68;100.00
3444;BME280;1736;52.068;6.968;2023-07-31T00:12:07;100665.06;;;14.68;100.00
3444;BME280;1736;52.068;6.968;2023-07-31T00:14:34;100667.88;;;14.67;100.00
3444;BME280;1736;52.068;6.968;2023-07-31T00:17:01;100649.31;;;14.65;100.00
3444;BME280;1736;52.068;6.968;2023-07-31T00:19:27;100648.69;;;14.71;100.00
3444;BME280;1736;52.068;6.968;2023-07-31T00:21:54;100659.31;;;14.63;100.00
3444;BME280;1736;52.068;6.968;2023-07-31T00:24:20;100661.00;;;14.64;100.00
3444;BME280;1736;52.068;6.968;2023-07-31T00:26:49;100665.19;;;14.67;100.00
3444;BME280;1736;52.068;6.968;2023-07-31T00:29:15;100656.28;;;14.58;100.00
3444;BME280;1736;52.068;6.968;2023-07-31T00:31:42;100654.75;;;14.56;100.00
3444;BME280;1736;52.068;6.968;2023-07-31T00:34:08;100655.41;;;14.58;100.00
3444;BME280;1736;52.068;6.968;2023-07-31T00:36:35;100650.47;;;14.63;100.00
3444;BME280;1736;52.068;6.968;2023-07-31T00:39:02;100656.72;;;14.54;100.00
3444;BME280;1736;52.068;6.968;2023-07-31T00:41:29;100666.28;;;14.56;100.00
3444;BME280;1736;52.068;6.968;2023-07-31T00:43:57;100663.44;;;14.58;100.00
3444;BME280;1736;52.068;6.968;2023-07-31T00:46:24;100663.22;;;14.51;100.00
3444;BME280;1736;52.068;6.968;2023-07-31T00:48:51;100672.44;;;14.57;100.00
3444;BME280;1736;52.068;6.968;2023-07-31T00:51:17;100683.13;;;14.57;100.00
3444;BME280;1736;52.068;6.968;2023-07-31T00:53:44;100699.38;;;14.63;100.00
3444;BME280;1736;52.068;6.968;2023-07-31T00:56:12;100694.19;;;14.62;100.00
3444;BME280;1736;52.068;6.968;2023-07-31T00:58:39;100688.53;;;14.65;100.00
3444;BME280;1736;52.068;6.968;2023-07-31T01:01:07;100705.72;;;14.62;100.00
3444;BME280;1736;52.068;6.968;2023-07-31T01:03:33;100700.16;;;14.56;100.00
3444;BME280;1736;52.068;6.968;2023-07-31T01:06:09;100698.84;;;14.60;100.00
3444;BME280;1736;52.068;6.968;2023-07-31T01:08:44;100698.16;;;14.58;100.00
3444;BME280;1736;52.068;6.968;2023-07-31T01:11:17;100703.56;;;14.66;100.00
3444;BME280;1736;52.068;6.968;2023-07-31T01:13:46;100700.75;;;14.67;100.00
3444;BME280;1736;52.068;6.968;2023-07-31T01:16:14;100708.09;;;14.65;100.00
3444;BME280;1736;52.068;6.968;2023-07-31T01:18:41;100699.22;;;14.65;100.00
3444;BME280;1736;52.068;6.968;2023-07-31T01:21:20;100702.59;;;14.67;100.00
3444;BME280;1736;52.068;6.968;2023-07-31T01:24:04;100705.56;;;14.64;100.00
3444;BME280;1736;52.068;6.968;2023-07-31T01:26:38;100710.19;;;14.62;100.00
3444;BME280;1736;52.068;6.968;2023-07-31T01:29:10;100700.53;;;14.61;100.00
3444;BME280;1736;52.068;6.968;2023-07-31T01:31:43;100708.59;;;14.69;100.00
3444;BME280;1736;52.068;6.968;2023-07-31T01:34:14;100719.00;;;14.72;100.00
3444;BME280;1736;52.068;6.968;2023-07-31T01:36:43;100720.00;;;14.71;100.00
3444;BME280;1736;52.068;6.968;2023-07-31T01:39:10;100725.56;;;14.77;100.00
3444;BME280;1736;52.068;6.968;2023-07-31T01:41:38;100717.47;;;14.69;100.00
3444;BME280;1736;52.068;6.968;2023-07-31T01:44:06;100725.72;;;14.76;100.00
3444;BME280;1736;52.068;6.968;2023-07-31T01:46:32;100719.50;;;14.75;100.00
3444;BME280;1736;52.068;6.968;2023-07-31T01:48:59;100720.97;;;14.70;100.00
3444;BME280;1736;52.068;6.968;2023-07-31T01:51:25;100726.31;;;14.70;100.00
3444;BME280;1736;52.068;6.968;2023-07-31T01:53:52;100717.16;;;14.72;100.00
3444;BME280;1736;52.068;6.968;2023-07-31T01:56:19;100725.41;;;14.79;100.00
3444;BME280;1736;52.068;6.968;2023-07-31T01:58:47;100717.22;;;14.80;100.00
3444;BME280;1736;52.068;6.968;2023-07-31T02:01:13;100716.16;;;14.91;100.00
3444;BME280;1736;52.068;6.968;2023-07-31T02:03:40;100728.22;;;14.95;100.00
3444;BME280;1736;52.068;6.968;2023-07-31T02:06:07;100716.94;;;15.09;100.00
3444;BME280;1736;52.068;6.968;2023-07-31T02:08:34;100723.34;;;15.16;100.00
3444;BME280;1736;52.068;6.968;2023-07-31T02:11:00;100722.72;;;15.22;100.00
3444;BME280;1736;52.068;6.968;2023-07-31T02:13:27;100721.75;;;15.31;100.00
3444;BME280;1736;52.068;6.968;2023-07-31T02:15:55;100735.84;;;15.33;100.00
3444;BME280;1736;52.068;6.968;2023-07-31T02:18:22;100737.75;;;15.41;100.00
3444;BME280;1736;52.068;6.968;2023-07-31T02:20:49;100723.59;;;15.48;100.00
3444;BME280;1736;52.068;6.968;2023-07-31T02:23:16;100816.19;;;15.49;100.00
3444;BME280;1736;52.068;6.968;2023-07-31T02:25:43;100739.31;;;15.51;100.00
3444;BME280;1736;52.068;6.968;2023-07-31T02:28:09;100727.78;;;15.51;100.00
3444;BME280;1736;52.068;6.968;2023-07-31T02:30:36;100728.31;;;15.54;100.00
3444;BME280;1736;52.068;6.968;2023-07-31T02:33:04;100728.03;;;15.65;100.00
3444;BME280;1736;52.068;6.968;2023-07-31T02:35:31;100738.59;;;15.67;100.00
3444;BME280;1736;52.068;6.968;2023-07-31T02:37:57;100731.41;;;15.75;100.00
3444;BME280;1736;52.068;6.968;2023-07-31T02:40:24;100740.44;;;15.74;100.00
3444;BME280;1736;52.068;6.968;2023-07-31T02:42:51;100732.56;;;15.73;100.00
3444;BME280;1736;52.068;6.968;2023-07-31T02:45:17;100737.78;;;15.74;100.00
3444;BME280;1736;52.068;6.968;2023-07-31T02:47:44;100733.63;;;15.80;100.00
3444;BME280;1736;52.068;6.968;2023-07-31T02:50:12;100747.00;;;15.80;100.00
3444;BME280;1736;52.068;6.968;2023-07-31T02:52:38;100730.25;;;15.78;100.00
3444;BME280;1736;52.068;6.968;2023-07-31T02:55:06;100735.78;;;15.84;100.00
3444;BME280;1736;52.068;6.968;2023-07-31T02:57:32;100742.66;;;15.79;100.00
3444;BME280;1736;52.068;6.968;2023-07-31T02:59:59;100752.19;;;15.81;100.00
3444;BME280;1736;52.068;6.968;2023-07-31T03:02:26;100740.97;;;15.78;100.00
3444;BME280;1736;52.068;6.968;2023-07-31T03:04:52;100748.19;;;15.85;100.00
3444;BME280;1736;52.068;6.968;2023-07-31T03:07:20;100751.19;;;15.82;100.00
3444;BME280;1736;52.068;6.968;2023-07-31T03:09:47;100752.03;;;15.83;100.00
3444;BME280;1736;52.068;6.968;2023-07-31T03:12:13;100744.16;;;15.81;100.00
3444;BME280;1736;52.068;6.968;2023-07-31T03:14:40;100764.59;;;15.90;100.00
3444;BME280;1736;52.068;6.968;2023-07-31T03:17:07;100752.91;;;15.91;100.00
3444;BME280;1736;52.068;6.968;2023-07-31T03:19:33;100761.25;;;15.88;100.00
3444;BME280;1736;52.068;6.968;2023-07-31T03:22:00;100769.16;;;15.98;100.00
3444;BME280;1736;52.068;6.968;2023-07-31T03:24:28;100766.28;;;15.91;100.00
3444;BME280;1736;52.068;6.968;2023-07-31T03:26:55;100817.13;;;15.91;100.00
3444;BME280;1736;52.068;6.968;2023-07-31T03:29:22;100793.41;;;15.96;100.00
3444;BME280;1736;52.068;6.968;2023-07-31T03:31:48;100817.44;;;15.88;100.00
3444;BME280;1736;52.068;6.968;2023-07-31T03:34:15;100831.34;;;15.92;100.00
3444;BME280;1736;52.068;6.968;2023-07-31T03:36:42;100843.22;;;15.89;100.00
3444;BME280;1736;52.068;6.968;2023-07-31T03:39:08;100834.19;;;15.90;100.00
3444;BME280;1736;52.068;6.968;2023-07-31T03:41:36;100851.56;;;15.86;100.00
3444;BME280;1736;52.068;6.968;2023-07-31T03:44:03;100846.41;;;15.93;100.00
3444;BME280;1736;52.068;6.968;2023-07-31T03:46:30;100829.84;;;15.89;100.00
3444;BME280;1736;52.068;6.968;2023-07-31T03:48:56;100825.69;;;15.95;100.00
3444;BME280;1736;52.068;6.968;2023-07-31T03:51:23;100829.50;;;15.92;100.00
3444;BME280;1736;52.068;6.968;2023-07-31T03:53:49;100870.16;;;15.88;100.00
3444;BME280;1736;52.068;6.968;2023-07-31T03:56:16;100910.44;;;15.86;100.00
3444;BME280;1736;52.068;6.968;2023-07-31T03:58:44;100905.59;;;15.90;100.00
3444;BME280;1736;52.068;6.968;2023-07-31T04:01:10;100940.19;;;15.83;100.00
3444;BME280;1736;52.068;6.968;2023-07-31T04:03:37;100944.22;;;15.87;100.00
3444;BME280;1736;52.068;6.968;2023-07-31T04:06:04;100942.84;;;15.83;100.00
3444;BME280;1736;52.068;6.968;2023-07-31T04:08:32;100937.19;;;15.86;100.00
3444;BME280;1736;52.068;6.968;2023-07-31T04:10:58;100948.75;;;15.87;100.00
3444;BME280;1736;52.068;6.968;2023-07-31T04:13:25;100957.25;;;15.82;100.00
3444;BME280;1736;52.068;6.968;2023-07-31T04:15:54;100967.78;;;15.84;100.00
3444;BME280;1736;52.068;6.968;2023-07-31T04:18:20;100969.63;;;15.83;100.00
3444;BME280;1736;52.068;6.968;2023-07-31T04:20:47;100981.31;;;15.82;100.00
3444;BME280;1736;52.068;6.968;2023-07-31T04:23:14;100989.72;;;15.87;100.00
3444;BME280;1736;52.068;6.968;2023-07-31T04:25:40;100982.38;;;15.89;100.00
3444;BME280;1736;52.068;6.968;2023-07-31T04:28:07;100988.41;;;15.91;100.00
3444;BME280;1736;52.068;6.968;2023-07-31T04:30:33;100975.25;;;15.80;100.00
3444;BME280;1736;52.068;6.968;2023-07-31T04:33:03;100972.22;;;15.75;100.00
3444;BME280;1736;52.068;6.968;2023-07-31T04:35:29;100967.16;;;15.72;100.00
3444;BME280;1736;52.068;6.968;2023-07-31T04:37:56;100972.16;;;15.67;100.00
3444;BME280;1736;52.068;6.968;2023-07-31T04:40:22;100967.81;;;15.66;100.00
3444;BME280;1736;52.068;6.968;2023-07-31T04:42:49;100973.16;;;15.66;100.00
3444;BME280;1736;52.068;6.968;2023-07-31T04:45:16;100957.03;;;15.58;100.00
3444;BME280;1736;52.068;6.968;2023-07-31T04:47:42;100971.78;;;15.62;100.00
3444;BME280;1736;52.068;6.968;2023-07-31T04:50:11;100958.53;;;15.61;100.00
3444;BME280;1736;52.068;6.968;2023-07-31T04:52:37;100964.19;;;15.58;100.00
3444;BME280;1736;52.068;6.968;2023-07-31T04:55:04;100961.38;;;15.59;100.00
3444;BME280;1736;52.068;6.968;2023-07-31T04:57:31;100958.03;;;15.57;100.00
3444;BME280;1736;52.068;6.968;2023-07-31T04:59:57;100950.38;;;15.62;100.00
3444;BME280;1736;52.068;6.968;2023-07-31T05:02:24;100952.91;;;15.64;100.00
3444;BME280;1736;52.068;6.968;2023-07-31T05:04:50;100955.72;;;15.62;100.00
3444;BME280;1736;52.068;6.968;2023-07-31T05:07:18;100965.91;;;15.59;100.00
3444;BME280;1736;52.068;6.968;2023-07-31T05:09:45;100952.03;;;15.63;100.00
3444;BME280;1736;52.068;6.968;2023-07-31T05:12:12;100936.00;;;15.63;100.00
3444;BME280;1736;52.068;6.968;2023-07-31T05:14:38;100940.25;;;15.74;100.00
3444;BME280;1736;52.068;6.968;2023-07-31T05:17:05;100935.91;;;15.73;100.00
3444;BME280;1736;52.068;6.968;2023-07-31T05:19:32;100932.09;;;15.75;100.00
3444;BME280;1736;52.068;6.968;2023-07-31T05:21:58;100931.41;;;15.73;100.00
3444;BME280;1736;52.068;6.968;2023-07-31T05:24:26;100928.75;;;15.73;100.00
3444;BME280;1736;52.068;6.968;2023-07-31T05:26:53;100933.38;;;15.71;100.00
3444;BME280;1736;52.068;6.968;2023-07-31T05:29:19;100928.81;;;15.81;100.00
3444;BME280;1736;52.068;6.968;2023-07-31T05:31:46;100931.09;;;15.76;100.00
3444;BME280;1736;52.068;6.968;2023-07-31T05:34:13;100930.03;;;15.69;100.00
3444;BME280;1736;52.068;6.968;2023-07-31T05:36:39;100963.38;;;15.57;100.00
3444;BME280;1736;52.068;6.968;2023-07-31T05:39:06;100935.41;;;15.52;100.00
3444;BME280;1736;52.068;6.968;2023-07-31T05:41:35;100924.00;;;15.50;100.00
3444;BME280;1736;52.068;6.968;2023-07-31T05:44:02;100918.13;;;15.46;100.00
3444;BME280;1736;52.068;6.968;2023-07-31T05:46:29;100909.09;;;15.47;100.00
3444;BME280;1736;52.068;6.968;2023-07-31T05:48:56;100905.13;;;15.51;100.00
3444;BME280;1736;52.068;6.968;2023-07-31T05:51:23;100902.16;;;15.54;100.00
3444;BME280;1736;52.068;6.968;2023-07-31T05:53:49;100903.81;;;15.55;100.00
3444;BME280;1736;52.068;6.968;2023-07-31T05:56:16;100900.84;;;15.58;100.00
3444;BME280;1736;52.068;6.968;2023-07-31T05:58:44;100891.53;;;15.62;100.00
3444;BME280;1736;52.068;6.968;2023-07-31T06:01:10;100890.06;;;15.68;100.00
3444;BME280;1736;52.068;6.968;2023-07-31T06:03:37;100894.84;;;15.82;100.00
3444;BME280;1736;52.068;6.968;2023-07-31T06:06:03;100897.25;;;15.93;100.00
3444;BME280;1736;52.068;6.968;2023-07-31T06:08:30;100890.91;;;15.94;100.00
3444;BME280;1736;52.068;6.968;2023-07-31T06:10:58;100896.31;;;16.02;100.00
3444;BME280;1736;52.068;6.968;2023-07-31T06:13:24;100893.22;;;16.14;100.00
3444;BME280;1736;52.068;6.968;2023-07-31T06:15:53;100892.63;;;16.28;100.00
3444;BME280;1736;52.068;6.968;2023-07-31T06:18:19;100893.13;;;16.24;100.00
3444;BME280;1736;52.068;6.968;2023-07-31T06:20:46;100881.59;;;16.31;100.00
3444;BME280;1736;52.068;6.968;2023-07-31T06:23:13;100886.09;;;16.31;100.00
3444;BME280;1736;52.068;6.968;2023-07-31T06:25:39;100892.09;;;16.25;100.00
3444;BME280;1736;52.068;6.968;2023-07-31T06:28:06;100877.03;;;16.24;100.00
3444;BME280;1736;52.068;6.968;2023-07-31T06:30:33;100881.88;;;16.20;100.00
3444;BME280;1736;52.068;6.968;2023-07-31T06:33:01;100881.88;;;16.20;100.00
3444;BME280;1736;52.068;6.968;2023-07-31T06:35:27;100877.97;;;16.15;100.00
3444;BME280;1736;52.068;6.968;2023-07-31T06:37:54;100885.75;;;16.00;100.00
3444;BME280;1736;52.068;6.968;2023-07-31T06:40:21;100880.75;;;15.97;100.00
3444;BME280;1736;52.068;6.968;2023-07-31T06:42:48;100948.13;;;15.93;100.00
3444;BME280;1736;52.068;6.968;2023-07-31T06:45:15;100871.97;;;15.87;100.00
3444;BME280;1736;52.068;6.968;2023-07-31T06:47:41;100863.63;;;15.90;100.00
3444;BME280;1736;52.068;6.968;2023-07-31T06:50:09;100848.19;;;15.84;100.00
3444;BME280;1736;52.068;6.968;2023-07-31T06:52:36;100847.88;;;15.87;100.00
3444;BME280;1736;52.068;6.968;2023-07-31T06:55:09;100844.84;;;15.82;100.00
3444;BME280;1736;52.068;6.968;2023-07-31T06:57:42;100834.66;;;15.86;100.00
3444;BME280;1736;52.068;6.968;2023-07-31T07:00:09;100854.53;;;15.83;100.00
3444;BME280;1736;52.068;6.968;2023-07-31T07:02:36;100839.69;;;15.89;100.00
3444;BME280;1736;52.068;6.968;2023-07-31T07:05:03;100842.22;;;15.90;100.00
3444;BME280;1736;52.068;6.968;2023-07-31T07:07:31;100834.56;;;15.95;100.00
3444;BME280;1736;52.068;6.968;2023-07-31T07:09:58;100837.56;;;16.00;100.00
3444;BME280;1736;52.068;6.968;2023-07-31T07:12:25;100832.44;;;16.07;100.00
3444;BME280;1736;52.068;6.968;2023-07-31T07:14:51;100828.44;;;16.11;100.00
3444;BME280;1736;52.068;6.968;2023-07-31T07:17:18;100827.63;;;16.10;100.00
3444;BME280;1736;52.068;6.968;2023-07-31T07:19:45;100824.97;;;16.18;100.00
3444;BME280;1736;52.068;6.968;2023-07-31T07:22:11;100822.66;;;16.23;100.00
3444;BME280;1736;52.068;6.968;2023-07-31T07:24:39;100827.00;;;16.24;100.00
3444;BME280;1736;52.068;6.968;2023-07-31T07:27:06;100822.38;;;16.34;100.00
3444;BME280;1736;52.068;6.968;2023-07-31T07:29:34;100815.69;;;16.38;100.00
3444;BME280;1736;52.068;6.968;2023-07-31T07:32:00;100819.75;;;16.42;100.00
3444;BME280;1736;52.068;6.968;2023-07-31T07:34:27;100814.88;;;16.46;100.00
3444;BME280;1736;52.068;6.968;2023-07-31T07:36:55;100824.28;;;16.50;100.00
3444;BME280;1736;52.068;6.968;2023-07-31T07:39:21;100817.56;;;16.46;100.00
3444;BME280;1736;52.068;6.968;2023-07-31T07:41:49;100813.56;;;16.50;100.00
3444;BME280;1736;52.068;6.968;2023-07-31T07:44:16;100814.03;;;16.45;100.00
3444;BME280;1736;52.068;6.968;2023-07-31T07:46:43;100807.72;;;16.46;100.00
3444;BME280;1736;52.068;6.968;2023-07-31T07:49:09;100803.16;;;16.47;100.00
3444;BME280;1736;52.068;6.968;2023-07-31T07:51:36;100803.69;;;16.42;100.00
3444;BME280;1736;52.068;6.968;2023-07-31T07:54:02;100805.34;;;16.43;100.00
3444;BME280;1736;52.068;6.968;2023-07-31T07:56:29;100803.97;;;16.39;100.00
3444;BME280;1736;52.068;6.968;2023-07-31T07:58:57;100801.03;;;16.50;100.00
3444;BME280;1736;52.068;6.968;2023-07-31T08:01:24;100794.97;;;16.48;100.00
3444;BME280;1736;52.068;6.968;2023-07-31T08:03:51;100792.16;;;16.58;100.00
3444;BME280;1736;52.068;6.968;2023-07-31T08:06:18;100786.16;;;16.56;100.00
3444;BME280;1736;52.068;6.968;2023-07-31T08:08:45;100787.31;;;16.69;100.00
3444;BME280;1736;52.068;6.968;2023-07-31T08:11:11;100791.34;;;16.81;100.00
3444;BME280;1736;52.068;6.968;2023-07-31T08:13:38;100779.97;;;16.79;100.00
3444;BME280;1736;52.068;6.968;2023-07-31T08:16:06;100780.13;;;16.78;100.00
3444;BME280;1736;52.068;6.968;2023-07-31T08:18:32;100761.22;;;16.79;100.00
3444;BME280;1736;52.068;6.968;2023-07-31T08:20:59;100766.91;;;16.84;100.00
3444;BME280;1736;52.068;6.968;2023-07-31T08:23:27;100774.09;;;16.92;100.00
3444;BME280;1736;52.068;6.968;2023-07-31T08:25:54;100761.22;;;16.95;100.00
3444;BME280;1736;52.068;6.968;2023-07-31T08:28:20;100759.91;;;16.99;100.00
3444;BME280;1736;52.068;6.968;2023-07-31T08:30:47;100749.66;;;16.95;100.00
3444;BME280;1736;52.068;6.968;2023-07-31T08:33:17;100757.38;;;16.98;100.00
3444;BME280;1736;52.068;6.968;2023-07-31T08:35:43;100751.50;;;17.02;100.00
3444;BME280;1736;52.068;6.968;2023-07-31T08:38:10;100746.13;;;17.02;100.00
3444;BME280;1736;52.068;6.968;2023-07-31T08:40:36;100743.81;;;17.07;100.00
3444;BME280;1736;52.068;6.968;2023-07-31T08:43:04;100751.16;;;16.97;100.00
3444;BME280;1736;52.068;6.968;2023-07-31T08:45:31;100753.53;;;17.08;100.00
3444;BME280;1736;52.068;6.968;2023-07-31T08:47:59;100757.06;;;17.09;100.00
3444;BME280;1736;52.068;6.968;2023-07-31T08:50:27;100746.97;;;17.03;100.00
3444;BME280;1736;52.068;6.968;2023-07-31T08:52:54;100739.09;;;17.01;100.00
3444;BME280;1736;52.068;6.968;2023-07-31T08:55:20;100737.94;;;16.96;100.00
3444;BME280;1736;52.068;6.968;2023-07-31T08:57:50;100735.09;;;16.97;100.00
3444;BME280;1736;52.068;6.968;2023-07-31T09:00:18;100742.78;;;17.08;100.00
3444;BME280;1736;52.068;6.968;2023-07-31T09:02:51;100748.00;;;17.10;100.00
3444;BME280;1736;52.068;6.968;2023-07-31T09:05:20;100739.78;;;17.19;100.00
3444;BME280;1736;52.068;6.968;2023-07-31T09:07:50;100741.44;;;17.20;100.00
3444;BME280;1736;52.068;6.968;2023-07-31T09:10:17;100743.97;;;17.30;100.00
3444;BME280;1736;52.068;6.968;2023-07-31T09:12:44;100730.03;;;17.26;100.00
3444;BME280;1736;52.068;6.968;2023-07-31T09:15:12;100739.41;;;17.38;100.00
3444;BME280;1736;52.068;6.968;2023-07-31T09:17:38;100744.28;;;17.35;100.00
3444;BME280;1736;52.068;6.968;2023-07-31T09:20:16;100738.22;;;17.33;100.00
3444;BME280;1736;52.068;6.968;2023-07-31T09:22:44;100736.72;;;17.38;100.00
3444;BME280;1736;52.068;6.968;2023-07-31T09:25:16;100722.31;;;17.39;100.00
3444;BME280;1736;52.068;6.968;2023-07-31T09:27:47;100722.13;;;17.49;100.00
3444;BME280;1736;52.068;6.968;2023-07-31T09:30:14;100723.13;;;17.56;100.00
3444;BME280;1736;52.068;6.968;2023-07-31T09:32:40;100722.34;;;17.47;100.00
3444;BME280;1736;52.068;6.968;2023-07-31T09:35:14;100726.84;;;17.55;100.00
3444;BME280;1736;52.068;6.968;2023-07-31T09:37:48;100731.63;;;17.67;100.00
3444;BME280;1736;52.068;6.968;2023-07-31T09:40:26;100722.75;;;17.75;100.00
3444;BME280;1736;52.068;6.968;2023-07-31T09:42:56;100722.75;;;17.75;100.00
3444;BME280;1736;52.068;6.968;2023-07-31T09:45:23;100720.44;;;17.64;100.00
3444;BME280;1736;52.068;6.968;2023-07-31T09:47:50;100723.94;;;17.72;100.00
3444;BME280;1736;52.068;6.968;2023-07-31T09:50:17;100720.13;;;17.59;100.00
3444;BME280;1736;52.068;6.968;2023-07-31T09:52:43;100703.00;;;17.60;100.00
3444;BME280;1736;52.068;6.968;2023-07-31T09:55:10;100704.03;;;17.51;100.00
3444;BME280;1736;52.068;6.968;2023-07-31T09:57:40;100705.06;;;17.42;100.00
3444;BME280;1736;52.068;6.968;2023-07-31T10:00:09;100713.59;;;17.37;100.00
3444;BME280;1736;52.068;6.968;2023-07-31T10:02:36;100702.22;;;17.35;100.00
3444;BME280;1736;52.068;6.968;2023-07-31T10:05:04;100706.91;;;17.25;100.00
3444;BME280;1736;52.068;6.968;2023-07-31T10:07:34;100725.03;;;17.23;100.00
3444;BME280;1736;52.068;6.968;2023-07-31T10:10:04;100718.94;;;17.37;100.00
3444;BME280;1736;52.068;6.968;2023-07-31T10:12:32;100709.41;;;17.43;100.00
3444;BME280;1736;52.068;6.968;2023-07-31T10:15:01;100706.22;;;17.39;100.00
3444;BME280;1736;52.068;6.968;2023-07-31T10:17:29;100715.25;;;17.38;100.00
3444;BME280;1736;52.068;6.968;2023-07-31T10:19:57;100700.84;;;17.39;100.00
3444;BME280;1736;52.068;6.968;2023-07-31T10:22:24;100724.31;;;17.53;100.00
3444;BME280;1736;52.068;6.968;2023-07-31T10:24:52;100718.06;;;17.61;100.00
3444;BME280;1736;52.068;6.968;2023-07-31T10:27:20;100720.28;;;17.57;100.00
3444;BME280;1736;52.068;6.968;2023-07-31T10:29:47;100723.97;;;17.56;100.00
3444;BME280;1736;52.068;6.968;2023-07-31T10:32:17;100714.22;;;17.63;100.00
3444;BME280;1736;52.068;6.968;2023-07-31T10:34:43;100722.22;;;17.71;100.00
3444;BME280;1736;52.068;6.968;2023-07-31T10:37:21;100714.38;;;17.70;100.00
3444;BME280;1736;52.068;6.968;2023-07-31T10:39:58;100714.88;;;17.73;100.00
3444;BME280;1736;52.068;6.968;2023-07-31T10:42:33;100705.16;;;17.72;100.00
3444;BME280;1736;52.068;6.968;2023-07-31T10:45:02;100709.69;;;17.64;100.00
3444;BME280;1736;52.068;6.968;2023-07-31T10:47:31;100701.88;;;17.85;100.00
3444;BME280;1736;52.068;6.968;2023-07-31T10:50:17;100709.13;;;17.84;100.00
3444;BME280;1736;52.068;6.968;2023-07-31T10:52:47;100707.81;;;17.80;100.00
3444;BME280;1736;52.068;6.968;2023-07-31T10:55:14;100706.81;;;17.73;100.00
3444;BME280;1736;52.068;6.968;2023-07-31T10:57:44;100706.81;;;17.73;100.00
3444;BME280;1736;52.068;6.968;2023-07-31T11:00:29;100697.75;;;17.74;100.00
3444;BME280;1736;52.068;6.968;2023-07-31T11:03:01;100697.44;;;17.69;100.00
3444;BME280;1736;52.068;6.968;2023-07-31T11:08:20;100699.75;;;17.80;100.00
3444;BME280;1736;52.068;6.968;2023-07-31T11:10:49;100699.06;;;17.78;100.00
3444;BME280;1736;52.068;6.968;2023-07-31T11:13:16;100693.19;;;17.83;100.00
3444;BME280;1736;52.068;6.968;2023-07-31T11:15:43;100675.91;;;17.85;100.00
3444;BME280;1736;52.068;6.968;2023-07-31T11:18:11;100683.97;;;17.77;100.00
3444;BME280;1736;52.068;6.968;2023-07-31T11:20:38;100685.66;;;17.78;100.00
3444;BME280;1736;52.068;6.968;2023-07-31T11:23:09;100686.63;;;17.85;100.00
3444;BME280;1736;52.068;6.968;2023-07-31T11:25:36;100694.31;;;17.96;100.00
3444;BME280;1736;52.068;6.968;2023-07-31T11:28:04;100687.84;;;18.13;100.00
3444;BME280;1736;52.068;6.968;2023-07-31T11:30:32;100695.94;;;18.05;100.00
3444;BME280;1736;52.068;6.968;2023-07-31T11:33:00;100686.91;;;17.98;100.00
3444;BME280;1736;52.068;6.968;2023-07-31T11:35:30;100683.88;;;18.01;100.00
3444;BME280;1736;52.068;6.968;2023-07-31T11:37:56;100677.44;;;18.10;100.00
3444;BME280;1736;52.068;6.968;2023-07-31T11:40:23;100677.38;;;18.18;100.00
3444;BME280;1736;52.068;6.968;2023-07-31T11:42:54;100670.88;;;18.43;100.00
3444;BME280;1736;52.068;6.968;2023-07-31T11:45:20;100679.97;;;18.65;100.00
3444;BME280;1736;52.068;6.968;2023-07-31T11:47:47;100675.16;;;18.75;100.00
3444;BME280;1736;52.068;6.968;2023-07-31T11:50:14;100678.47;;;18.99;100.00
3444;BME280;1736;52.068;6.968;2023-07-31T11:52:44;100679.97;;;19.02;100.00
3444;BME280;1736;52.068;6.968;2023-07-31T11:55:12;100683.88;;;19.14;100.00
3444;BME280;1736;52.068;6.968;2023-07-31T11:57:41;100672.50;;;19.12;100.00
3444;BME280;1736;52.068;6.968;2023-07-31T12:00:11;100677.53;;;19.29;100.00
3444;BME280;1736;52.068;6.968;2023-07-31T12:02:39;100685.25;;;19.47;100.00
3444;BME280;1736;52.068;6.968;2023-07-31T12:05:10;100686.09;;;19.62;100.00
3444;BME280;1736;52.068;6.968;2023-07-31T12:07:50;100677.75;;;19.57;100.00
3444;BME280;1736;52.068;6.968;2023-07-31T12:10:28;100676.34;;;19.46;100.00
3444;BME280;1736;52.068;6.968;2023-07-31T12:12:56;100669.09;;;19.32;100.00
3444;BME280;1736;52.068;6.968;2023-07-31T12:15:29;100668.91;;;19.48;100.00
3444;BME280;1736;52.068;6.968;2023-07-31T12:17:57;100673.66;;;19.46;100.00
3444;BME280;1736;52.068;6.968;2023-07-31T12:20:23;100670.97;;;19.46;100.00
3444;BME280;1736;52.068;6.968;2023-07-31T12:22:52;100659.91;;;19.27;100.00
3444;BME280;1736;52.068;6.968;2023-07-31T12:25:18;100671.69;;;19.40;100.00
3444;BME280;1736;52.068;6.968;2023-07-31T12:27:45;100650.03;;;19.05;100.00
3444;BME280;1736;52.068;6.968;2023-07-31T12:30:26;100652.19;;;18.87;100.00
3444;BME280;1736;52.068;6.968;2023-07-31T12:32:53;100656.69;;;18.94;100.00
3444;BME280;1736;52.068;6.968;2023-07-31T12:35:19;100657.53;;;18.72;100.00
3444;BME280;1736;52.068;6.968;2023-07-31T12:37:46;100656.69;;;18.57;100.00
3444;BME280;1736;52.068;6.968;2023-07-31T12:40:15;100656.13;;;18.39;100.00
3444;BME280;1736;52.068;6.968;2023-07-31T12:42:41;100649.72;;;18.40;100.00
3444;BME280;1736;52.068;6.968;2023-07-31T12:45:08;100652.59;;;18.61;100.00
3444;BME280;1736;52.068;6.968;2023-07-31T12:47:35;100657.81;;;19.00;100.00
3444;BME280;1736;52.068;6.968;2023-07-31T12:50:02;100657.91;;;19.06;100.00
3444;BME280;1736;52.068;6.968;2023-07-31T12:52:28;100659.31;;;19.17;100.00
3444;BME280;1736;52.068;6.968;2023-07-31T12:54:55;100651.22;;;19.02;100.00
3444;BME280;1736;52.068;6.968;2023-07-31T12:57:23;100647.97;;;19.21;100.00
3444;BME280;1736;52.068;6.968;2023-07-31T12:59:50;100642.00;;;19.48;100.00
3444;BME280;1736;52.068;6.968;2023-07-31T13:02:16;100644.59;;;19.71;100.00
3444;BME280;1736;52.068;6.968;2023-07-31T13:04:44;100645.28;;;19.94;100.00
3444;BME280;1736;52.068;6.968;2023-07-31T13:07:10;100648.00;;;19.94;100.00